Knoxville, Texas
Current Conditions -  °F | °C
As of 2:15 PM on Monday 24 Nov 2014 (Local Time) from KT82 Reporting Station
Clear Clear  
Wind Chill: 58°   Ceiling: Unl
Heat Index: 58°   Visibility: 10mi
Dew Point: 22°   Wind: 7mph
Humidity: 25%   Direction: 310°NW
Pressure: 30.06"   Gusts: NA
Location:  30.3145°N, 99.2255°W
Report Text: KT82 242015Z AUTO 31006KT 10SM CLR 15/M05 A3006 RMK AO2 T01461053
Loading
Personal Weather Stations






























Interactive Weather Map New forecast layout! Learn more

10-Day Weather Forecast

Advertisements
Track Severe Weather on mobile